createdAt,value
2022-11-12T00:01:56.844Z,5.58
2022-11-12T00:04:42.078Z,5.73
2022-11-12T00:07:27.384Z,5.76
2022-11-12T00:10:13.076Z,5.80
2022-11-12T00:12:59.106Z,5.87
2022-11-12T00:15:46.394Z,5.86
2022-11-12T00:18:31.671Z,5.92
2022-11-12T00:21:16.784Z,5.99
2022-11-12T00:24:02.044Z,5.99
2022-11-12T00:26:47.420Z,6.01
2022-11-12T00:29:32.626Z,6.01
2022-11-12T00:32:17.951Z,6.07
2022-11-12T00:35:12.455Z,6.10
2022-11-12T00:37:59.202Z,6.08
2022-11-12T00:40:44.437Z,6.03
2022-11-12T00:43:29.781Z,6.08
2022-11-12T00:46:14.994Z,6.00
2022-11-12T00:49:00.575Z,5.97
2022-11-12T00:51:45.812Z,5.99
2022-11-12T00:54:31.059Z,6.03
2022-11-12T00:57:16.534Z,5.97
2022-11-12T01:00:02.014Z,5.96
2022-11-12T01:02:51.085Z,5.97
2022-11-12T01:05:37.064Z,6.02
2022-11-12T01:08:22.399Z,5.97
2022-11-12T01:11:28.920Z,5.95
2022-11-12T01:14:14.633Z,5.93
2022-11-12T01:16:59.766Z,6.02
2022-11-12T01:19:44.982Z,6.00
2022-11-12T01:22:30.589Z,6.00
2022-11-12T01:25:15.979Z,5.97
2022-11-12T01:28:02.341Z,6.06
2022-11-12T01:30:47.954Z,6.04
2022-11-12T01:33:33.047Z,6.08
2022-11-12T01:36:19.325Z,6.07
2022-11-12T01:39:06.865Z,6.04
2022-11-12T01:41:52.442Z,6.11
2022-11-12T01:44:40.068Z,6.04
2022-11-12T01:47:28.144Z,6.03
2022-11-12T01:50:22.428Z,5.97
2022-11-12T01:53:10.449Z,6.00
2022-11-12T01:55:56.693Z,5.99
2022-11-12T01:58:42.530Z,5.97
2022-11-12T02:01:27.793Z,5.87
2022-11-12T02:04:13.659Z,5.88
2022-11-12T02:06:59.669Z,5.88
2022-11-12T02:09:45.274Z,5.85
2022-11-12T02:12:49.188Z,5.76
2022-11-12T02:15:37.990Z,5.72
2022-11-12T02:18:23.646Z,5.65
2022-11-12T02:21:09.416Z,5.55
2022-11-12T02:24:26.781Z,5.44
2022-11-12T02:27:12.560Z,5.43
2022-11-12T02:29:57.922Z,5.33
2022-11-12T02:32:43.047Z,5.34
2022-11-12T02:35:28.524Z,5.30
2022-11-12T02:38:13.832Z,5.33
2022-11-12T02:40:59.395Z,5.37
2022-11-12T02:43:44.928Z,5.34
2022-11-12T02:46:30.148Z,5.29
2022-11-12T02:49:15.660Z,5.20
2022-11-12T02:52:01.179Z,5.20
2022-11-12T02:54:46.779Z,5.20
2022-11-12T02:57:32.247Z,5.22
2022-11-12T03:00:18.532Z,5.22
2022-11-12T03:03:06.545Z,5.18
2022-11-12T03:05:59.766Z,5.21
2022-11-12T03:08:45.489Z,5.36
2022-11-12T03:11:31.073Z,5.51
2022-11-12T03:14:16.341Z,5.66
2022-11-12T03:17:01.712Z,5.91
2022-11-12T03:19:47.085Z,5.91
2022-11-12T03:22:32.527Z,5.91
2022-11-12T03:25:17.891Z,5.91
2022-11-12T03:28:06.322Z,5.87
2022-11-12T03:30:51.820Z,5.79
2022-11-12T03:33:37.772Z,5.75
2022-11-12T03:36:23.319Z,5.75
2022-11-12T03:39:08.543Z,5.72
2022-11-12T03:41:54.257Z,5.69
2022-11-12T03:44:39.585Z,5.61
2022-11-12T03:47:25.139Z,5.57
2022-11-12T03:50:11.889Z,5.44
2022-11-12T03:52:59.151Z,5.37
2022-11-12T03:55:44.977Z,5.31
2022-11-12T03:58:30.136Z,5.20
2022-11-12T04:01:15.369Z,5.16
2022-11-12T04:04:00.858Z,5.13
2022-11-12T04:07:04.611Z,5.11
2022-11-12T04:09:49.908Z,5.09
2022-11-12T04:12:53.762Z,5.06
2022-11-12T04:15:39.192Z,5.01
2022-11-12T04:18:42.797Z,4.98
2022-11-12T04:21:51.928Z,4.96
2022-11-12T04:24:58.392Z,4.95
2022-11-12T04:27:43.767Z,4.92
2022-11-12T04:30:29.201Z,4.94
2022-11-12T04:33:14.442Z,4.84
2022-11-12T04:35:59.897Z,4.86
2022-11-12T04:38:45.394Z,4.85
2022-11-12T04:41:49.011Z,4.79
2022-11-12T04:44:52.765Z,4.75
2022-11-12T04:47:40.562Z,4.73
2022-11-12T04:50:26.069Z,4.70
2022-11-12T04:53:11.637Z,4.66
2022-11-12T04:55:58.543Z,4.58
2022-11-12T04:58:43.769Z,4.48
2022-11-12T05:01:28.991Z,4.38
2022-11-12T05:04:14.324Z,4.36
2022-11-12T05:06:59.805Z,4.29
2022-11-12T05:09:45.016Z,4.21
2022-11-12T05:12:30.306Z,4.14
2022-11-12T05:15:15.572Z,4.03
2022-11-12T05:18:00.798Z,4.00
2022-11-12T05:20:46.159Z,4.00
2022-11-12T05:23:31.713Z,3.95
2022-11-12T05:26:17.168Z,3.90
2022-11-12T05:29:07.561Z,3.93
2022-11-12T05:31:54.048Z,3.92
2022-11-12T05:34:39.368Z,3.95
2022-11-12T05:37:24.616Z,3.87
2022-11-12T05:40:10.343Z,3.94
2022-11-12T05:42:55.676Z,3.96
2022-11-12T05:45:43.991Z,3.98
2022-11-12T05:48:29.964Z,3.98
2022-11-12T05:51:15.624Z,4.07
2022-11-12T05:54:01.722Z,4.09
2022-11-12T05:56:47.272Z,4.16
2022-11-12T05:59:32.548Z,4.28
2022-11-12T06:02:18.127Z,4.36
2022-11-12T06:05:04.017Z,4.36
2022-11-12T06:07:49.273Z,4.35
2022-11-12T06:10:37.392Z,4.36
2022-11-12T06:13:24.468Z,4.36
2022-11-12T06:16:09.829Z,4.36
2022-11-12T06:18:55.185Z,4.38
2022-11-12T06:21:40.312Z,4.37
2022-11-12T06:24:30.710Z,4.53
2022-11-12T06:27:19.321Z,4.60
2022-11-12T06:30:05.748Z,4.77
2022-11-12T06:32:51.574Z,4.90
2022-11-12T06:35:41.702Z,4.97
2022-11-12T06:38:35.734Z,5.04
2022-11-12T06:41:21.198Z,5.17
2022-11-12T06:44:06.685Z,5.24
2022-11-12T06:46:51.864Z,5.31
2022-11-12T06:49:37.008Z,5.43
2022-11-12T06:52:22.161Z,5.47
2022-11-12T06:55:08.501Z,5.54
2022-11-12T06:57:53.814Z,5.65
2022-11-12T07:00:39.180Z,5.76
2022-11-12T07:03:24.546Z,6.08
2022-11-12T07:06:12.640Z,6.16
2022-11-12T07:08:58.069Z,6.23
2022-11-12T07:11:43.733Z,6.30
2022-11-12T07:14:29.026Z,6.32
2022-11-12T07:17:14.391Z,6.47
2022-11-12T07:20:03.942Z,6.77
2022-11-12T07:22:49.644Z,7.09
2022-11-12T07:25:37.913Z,7.30
2022-11-12T07:28:23.539Z,7.42
2022-11-12T07:31:11.160Z,7.50
2022-11-12T07:33:56.520Z,7.57
2022-11-12T07:36:42.027Z,7.74
2022-11-12T07:39:27.328Z,7.99
2022-11-12T07:42:12.849Z,8.22
2022-11-12T07:44:57.994Z,8.40
2022-11-12T07:47:43.583Z,8.58
2022-11-12T07:50:31.834Z,8.88
2022-11-12T07:53:17.316Z,9.20
2022-11-12T07:56:04.568Z,9.50
2022-11-12T07:58:52.777Z,9.84
2022-11-12T08:01:40.143Z,9.93
2022-11-12T08:04:25.908Z,10.12
2022-11-12T08:07:11.669Z,9.97
2022-11-12T08:09:58.390Z,9.82
2022-11-12T08:12:43.930Z,9.96
2022-11-12T08:15:29.726Z,9.89
2022-11-12T08:18:15.185Z,10.07
2022-11-12T08:21:01.227Z,10.11
2022-11-12T08:23:46.587Z,10.43
2022-11-12T08:26:32.001Z,10.62
2022-11-12T08:29:17.449Z,10.85
2022-11-12T08:32:02.893Z,10.65
2022-11-12T08:34:48.240Z,10.57
2022-11-12T08:37:33.807Z,9.94
2022-11-12T08:40:19.258Z,10.29
2022-11-12T08:43:08.897Z,9.74
2022-11-12T08:45:54.351Z,9.59
2022-11-12T08:48:40.197Z,9.28
2022-11-12T08:51:25.387Z,9.44
2022-11-12T08:54:10.734Z,9.38
2022-11-12T08:56:55.898Z,9.44
2022-11-12T08:59:41.503Z,9.35
2022-11-12T09:02:26.813Z,9.17
2022-11-12T09:05:12.269Z,9.10
2022-11-12T09:07:59.254Z,9.22
2022-11-12T09:10:45.548Z,9.29
2022-11-12T09:13:31.303Z,9.24
2022-11-12T09:16:18.099Z,9.49
2022-11-12T09:19:03.677Z,9.33
2022-11-12T09:21:49.136Z,9.29
2022-11-12T09:24:34.542Z,9.58
2022-11-12T09:27:19.665Z,9.59
2022-11-12T09:30:06.614Z,9.67
2022-11-12T09:32:57.584Z,9.83
2022-11-12T09:35:43.640Z,9.84
2022-11-12T09:38:29.069Z,9.87
2022-11-12T09:41:19.280Z,10.13
2022-11-12T09:44:10.008Z,9.94
2022-11-12T09:47:00.350Z,10.01
2022-11-12T09:49:51.935Z,10.32
2022-11-12T09:52:38.116Z,10.25
2022-11-12T09:55:30.770Z,10.07
2022-11-12T09:58:19.017Z,10.63
2022-11-12T10:01:14.772Z,10.46
2022-11-12T10:04:36.864Z,10.40
2022-11-12T10:07:32.551Z,10.44
2022-11-12T10:10:53.003Z,10.56
2022-11-12T10:13:44.437Z,10.84
2022-11-12T10:16:45.005Z,10.84
2022-11-12T10:19:42.100Z,10.46
2022-11-12T10:22:46.042Z,10.60
2022-11-12T10:25:34.202Z,10.84
2022-11-12T10:28:33.138Z,10.80
2022-11-12T10:31:21.960Z,10.65
2022-11-12T10:34:19.196Z,10.91
2022-11-12T10:37:07.900Z,10.69
2022-11-12T10:39:53.298Z,10.54
2022-11-12T10:42:56.601Z,10.85
2022-11-12T10:45:42.162Z,10.75
2022-11-12T10:48:36.609Z,10.80
2022-11-12T10:51:28.566Z,10.91
2022-11-12T10:54:21.698Z,11.24
2022-11-12T10:57:22.281Z,11.39
2022-11-12T11:00:09.019Z,11.26
2022-11-12T11:02:55.050Z,11.43
2022-11-12T11:06:01.540Z,11.53
2022-11-12T11:08:51.631Z,11.57
2022-11-12T11:11:36.905Z,11.96
2022-11-12T11:14:21.990Z,11.89
2022-11-12T11:17:16.453Z,11.87
2022-11-12T11:20:03.143Z,11.76
2022-11-12T11:23:00.023Z,11.83
2022-11-12T11:25:48.059Z,12.28
2022-11-12T11:28:39.308Z,12.07
2022-11-12T11:31:35.588Z,12.23
2022-11-12T11:34:23.813Z,11.92
2022-11-12T11:37:28.107Z,12.02
2022-11-12T11:40:29.228Z,12.19
2022-11-12T11:43:52.068Z,12.44
2022-11-12T11:46:43.073Z,12.56
2022-11-12T11:49:47.152Z,12.28
2022-11-12T11:52:38.457Z,12.25
2022-11-12T11:55:42.889Z,12.28
2022-11-12T11:58:40.357Z,12.13
2022-11-12T12:01:31.320Z,12.26
2022-11-12T12:04:40.858Z,12.63
2022-11-12T12:08:14.087Z,12.95
2022-11-12T12:11:17.862Z,12.58
2022-11-12T12:14:11.547Z,12.78
2022-11-12T12:17:32.150Z,13.18
2022-11-12T12:20:46.452Z,12.87
2022-11-12T12:23:36.452Z,12.94
2022-11-12T12:26:36.529Z,12.99
2022-11-12T12:29:47.661Z,13.09
2022-11-12T12:32:42.557Z,12.97
2022-11-12T12:35:31.944Z,13.48
2022-11-12T12:38:20.566Z,13.69
2022-11-12T12:41:14.517Z,13.75
2022-11-12T12:44:05.339Z,13.61
2022-11-12T12:46:57.206Z,13.51
2022-11-12T12:49:43.545Z,13.42
2022-11-12T12:52:28.952Z,13.61
2022-11-12T12:55:36.984Z,13.52
2022-11-12T12:58:41.445Z,13.67
2022-11-12T13:01:29.645Z,13.87
2022-11-12T13:04:15.330Z,13.83
2022-11-12T13:07:01.123Z,13.88
2022-11-12T13:09:46.831Z,13.88
2022-11-12T13:13:23.621Z,13.63
2022-11-12T13:17:03.853Z,13.47
2022-11-12T13:19:54.910Z,13.64
2022-11-12T13:22:39.880Z,13.47
2022-11-12T13:25:30.965Z,13.52
2022-11-12T13:28:16.313Z,13.69
2022-11-12T13:31:03.841Z,13.75
2022-11-12T13:33:49.561Z,13.88
2022-11-12T13:36:35.213Z,13.33
2022-11-12T13:39:21.263Z,13.65
2022-11-12T13:42:36.149Z,13.66
2022-11-12T13:45:26.525Z,13.35
2022-11-12T13:48:34.381Z,13.50
2022-11-12T13:51:39.557Z,13.81
2022-11-12T13:54:32.068Z,13.55
2022-11-12T13:57:20.212Z,13.15
2022-11-12T14:00:18.272Z,13.34
2022-11-12T14:03:07.165Z,13.36
2022-11-12T14:05:53.073Z,13.09
2022-11-12T14:08:53.778Z,12.91
2022-11-12T14:11:41.984Z,12.84
2022-11-12T14:14:36.762Z,13.04
2022-11-12T14:17:40.508Z,12.84
2022-11-12T14:20:31.217Z,12.84
2022-11-12T14:23:23.141Z,12.55
2022-11-12T14:26:11.952Z,12.36
2022-11-12T14:28:57.473Z,12.56
2022-11-12T14:31:42.940Z,12.59
2022-11-12T14:34:32.217Z,12.45
2022-11-12T14:37:38.214Z,12.20
2022-11-12T14:40:28.736Z,12.13
2022-11-12T14:43:37.510Z,12.05
2022-11-12T14:46:24.765Z,12.02
2022-11-12T14:49:21.292Z,12.04
2022-11-12T14:52:17.786Z,11.96
2022-11-12T14:55:16.279Z,11.78
2022-11-12T14:58:01.924Z,11.59
2022-11-12T15:00:49.939Z,11.51
2022-11-12T15:03:35.776Z,11.43
2022-11-12T15:06:30.436Z,11.38
2022-11-12T15:09:18.828Z,11.37
2022-11-12T15:12:09.989Z,11.28
2022-11-12T15:15:07.967Z,11.23
2022-11-12T15:18:01.405Z,11.07
2022-11-12T15:21:07.846Z,11.01
2022-11-12T15:23:59.451Z,10.99
2022-11-12T15:26:46.838Z,10.92
2022-11-12T15:29:34.123Z,10.93
2022-11-12T15:32:19.243Z,10.92
2022-11-12T15:35:04.766Z,10.90
2022-11-12T15:37:50.273Z,10.87
2022-11-12T15:40:43.552Z,10.86
2022-11-12T15:43:32.063Z,10.70
2022-11-12T15:46:17.405Z,10.77
2022-11-12T15:49:02.901Z,10.72
2022-11-12T15:51:48.498Z,10.62
2022-11-12T15:54:38.176Z,10.52
2022-11-12T15:57:27.459Z,10.41
2022-11-12T16:00:16.959Z,10.34
2022-11-12T16:03:19.425Z,10.31
2022-11-12T16:06:08.924Z,10.40
2022-11-12T16:08:54.681Z,10.48
2022-11-12T16:11:40.152Z,10.54
2022-11-12T16:14:25.399Z,10.52
2022-11-12T16:17:17.954Z,10.47
2022-11-12T16:20:12.223Z,10.48
2022-11-12T16:22:57.787Z,10.45
2022-11-12T16:25:43.287Z,10.48
2022-11-12T16:28:29.002Z,10.51
2022-11-12T16:31:14.509Z,10.73
2022-11-12T16:34:00.229Z,10.59
2022-11-12T16:36:47.460Z,10.90
2022-11-12T16:39:33.008Z,10.89
2022-11-12T16:42:18.154Z,10.85
2022-11-12T16:45:03.814Z,10.76
2022-11-12T16:47:51.543Z,10.63
2022-11-12T16:50:39.931Z,10.58
2022-11-12T16:53:25.413Z,10.48
2022-11-12T16:56:20.181Z,10.49
2022-11-12T16:59:05.708Z,10.45
2022-11-12T17:01:51.111Z,10.40
2022-11-12T17:04:36.309Z,10.35
2022-11-12T17:07:22.056Z,10.27
2022-11-12T17:10:08.448Z,10.20
2022-11-12T17:12:53.786Z,10.11
2022-11-12T17:15:39.140Z,10.00
2022-11-12T17:18:24.389Z,9.98
2022-11-12T17:21:12.348Z,9.93
2022-11-12T17:23:58.088Z,9.95
2022-11-12T17:26:43.661Z,9.94
2022-11-12T17:29:29.046Z,9.87
2022-11-12T17:32:14.638Z,9.80
2022-11-12T17:35:00.124Z,9.77
2022-11-12T17:37:45.763Z,9.73
2022-11-12T17:40:31.141Z,9.72
2022-11-12T17:43:16.459Z,9.69
2022-11-12T17:46:02.225Z,9.67
2022-11-12T17:48:47.756Z,9.65
2022-11-12T17:51:33.187Z,9.67
2022-11-12T17:54:18.516Z,9.61
2022-11-12T17:57:03.880Z,9.57
2022-11-12T17:59:51.963Z,9.45
2022-11-12T18:02:37.409Z,9.38
2022-11-12T18:05:22.817Z,9.39
2022-11-12T18:08:07.922Z,9.33
2022-11-12T18:10:53.528Z,9.39
2022-11-12T18:13:39.142Z,9.46
2022-11-12T18:16:26.665Z,9.39
2022-11-12T18:19:12.781Z,9.36
2022-11-12T18:21:58.990Z,9.33
2022-11-12T18:24:44.653Z,9.33
2022-11-12T18:27:30.305Z,9.40
2022-11-12T18:30:19.292Z,9.41
2022-11-12T18:33:07.859Z,9.39
2022-11-12T18:36:10.932Z,9.37
2022-11-12T18:38:56.347Z,9.35
2022-11-12T18:41:41.439Z,9.38
2022-11-12T18:44:26.740Z,9.38
2022-11-12T18:47:12.049Z,9.39
2022-11-12T18:49:57.240Z,9.44
2022-11-12T18:52:43.479Z,9.51
2022-11-12T18:55:28.984Z,9.53
2022-11-12T18:58:14.558Z,9.50
2022-11-12T19:01:04.193Z,9.49
2022-11-12T19:03:53.979Z,9.51
2022-11-12T19:06:39.415Z,9.65
2022-11-12T19:09:24.716Z,9.72
2022-11-12T19:12:10.196Z,9.74
2022-11-12T19:14:55.678Z,9.85
2022-11-12T19:17:40.829Z,9.82
2022-11-12T19:20:26.185Z,9.76
2022-11-12T19:23:11.656Z,9.71
2022-11-12T19:25:56.962Z,9.62
2022-11-12T19:28:43.098Z,9.71
2022-11-12T19:31:28.569Z,9.64
2022-11-12T19:34:13.892Z,9.58
2022-11-12T19:37:31.805Z,9.56
2022-11-12T19:40:06.418Z,9.75
2022-11-12T19:42:51.617Z,9.62
2022-11-12T19:45:37.413Z,9.63
2022-11-12T19:48:22.889Z,9.59
2022-11-12T19:51:10.119Z,9.61
2022-11-12T19:53:55.674Z,9.64
2022-11-12T19:56:41.120Z,9.65
2022-11-12T19:59:26.650Z,9.61
2022-11-12T20:02:12.334Z,9.57
2022-11-12T20:04:57.650Z,9.58
2022-11-12T20:07:43.009Z,9.64
2022-11-12T20:10:28.310Z,9.66
2022-11-12T20:13:13.795Z,9.65
2022-11-12T20:15:59.342Z,9.79
2022-11-12T20:18:49.835Z,9.78
2022-11-12T20:21:36.484Z,9.75
2022-11-12T20:24:22.061Z,9.65
2022-11-12T20:27:07.876Z,9.60
2022-11-12T20:29:53.210Z,9.70
2022-11-12T20:32:38.515Z,9.77
2022-11-12T20:35:24.147Z,9.79
2022-11-12T20:38:09.336Z,9.86
2022-11-12T20:41:00.015Z,9.76
2022-11-12T20:43:45.604Z,9.84
2022-11-12T20:46:30.917Z,9.86
2022-11-12T20:49:16.042Z,9.72
2022-11-12T20:52:01.346Z,9.67
2022-11-12T20:54:46.852Z,9.65
2022-11-12T20:57:32.371Z,9.67
2022-11-12T21:00:23.760Z,9.61
2022-11-12T21:03:09.264Z,9.78
2022-11-12T21:06:02.063Z,9.59
2022-11-12T21:08:47.453Z,9.48
2022-11-12T21:11:33.008Z,9.40
2022-11-12T21:14:18.257Z,9.26
2022-11-12T21:17:03.590Z,9.21
2022-11-12T21:19:48.748Z,9.16
2022-11-12T21:22:34.061Z,8.96
2022-11-12T21:25:19.732Z,8.93
2022-11-12T21:28:08.132Z,8.78
2022-11-12T21:30:53.765Z,8.63
2022-11-12T21:33:39.381Z,8.56
2022-11-12T21:36:27.217Z,8.49
2022-11-12T21:39:12.576Z,8.37
2022-11-12T21:41:57.827Z,8.28
2022-11-12T21:44:42.998Z,8.19
2022-11-12T21:47:28.988Z,8.13
2022-11-12T21:50:14.434Z,8.06
2022-11-12T21:52:59.763Z,7.97
2022-11-12T21:55:45.008Z,7.96
2022-11-12T21:58:31.026Z,7.93
2022-11-12T22:01:21.617Z,7.90
2022-11-12T22:04:07.915Z,7.84
2022-11-12T22:06:53.256Z,7.75
2022-11-12T22:09:38.886Z,7.71
2022-11-12T22:12:24.093Z,7.71
2022-11-12T22:15:09.876Z,7.60
2022-11-12T22:17:57.766Z,7.52
2022-11-12T22:20:43.301Z,7.50
2022-11-12T22:23:29.248Z,7.47
2022-11-12T22:26:17.680Z,7.49
2022-11-12T22:29:03.210Z,7.40
2022-11-12T22:31:48.952Z,7.26
2022-11-12T22:34:34.304Z,7.15
2022-11-12T22:37:19.401Z,7.02
2022-11-12T22:40:07.987Z,6.98
2022-11-12T22:42:57.629Z,6.93
2022-11-12T22:45:42.676Z,6.82
2022-11-12T22:48:28.508Z,6.84
2022-11-12T22:51:21.840Z,6.74
2022-11-12T22:54:09.339Z,6.70
2022-11-12T22:56:54.610Z,6.73
2022-11-12T22:59:39.861Z,6.76
2022-11-12T23:02:25.490Z,6.83
2022-11-12T23:05:11.025Z,7.07
2022-11-12T23:07:56.356Z,7.16
2022-11-12T23:10:45.757Z,7.04
2022-11-12T23:13:32.216Z,7.03
2022-11-12T23:16:19.885Z,7.10
2022-11-12T23:19:05.354Z,7.13
2022-11-12T23:21:50.660Z,6.95
2022-11-12T23:24:36.069Z,6.84
2022-11-12T23:27:21.488Z,6.81
2022-11-12T23:30:07.216Z,6.74
2022-11-12T23:32:52.801Z,6.74
2022-11-12T23:35:41.098Z,6.69
2022-11-12T23:38:26.725Z,6.58
2022-11-12T23:41:14.601Z,6.40
2022-11-12T23:44:00.592Z,6.37
2022-11-12T23:46:45.695Z,6.24
2022-11-12T23:49:31.153Z,6.05
2022-11-12T23:52:18.870Z,5.86
2022-11-12T23:55:04.427Z,5.75
2022-11-12T23:57:52.764Z,5.72
